createdAt,value
2018-01-26T00:01:37.008Z,8.50
2018-01-26T00:04:05.252Z,8.50
2018-01-26T00:06:33.545Z,8.50
2018-01-26T00:09:02.567Z,8.50
2018-01-26T00:11:30.838Z,8.50
2018-01-26T00:13:59.085Z,8.50
2018-01-26T00:16:28.101Z,8.60
2018-01-26T00:18:56.388Z,8.60
2018-01-26T00:21:24.628Z,8.60
2018-01-26T00:23:55.457Z,8.70
2018-01-26T00:26:24.472Z,8.80
2018-01-26T00:28:52.740Z,8.70
2018-01-26T00:31:20.996Z,8.80
2018-01-26T00:33:50.008Z,8.80
2018-01-26T00:36:18.384Z,8.80
2018-01-26T00:38:46.674Z,8.80
2018-01-26T00:41:15.667Z,8.80
2018-01-26T00:43:43.920Z,8.80
2018-01-26T00:46:12.244Z,8.90
2018-01-26T00:48:40.479Z,8.90
2018-01-26T00:51:08.768Z,8.90
2018-01-26T00:53:37.016Z,9.00
2018-01-26T00:56:06.090Z,9.00
2018-01-26T00:58:34.324Z,8.90
2018-01-26T01:01:02.611Z,9.00
2018-01-26T01:03:30.884Z,8.90
2018-01-26T01:05:59.116Z,8.90
2018-01-26T01:08:28.140Z,8.90
2018-01-26T01:14:11.369Z,8.80
2018-01-26T01:16:40.571Z,8.80
2018-01-26T01:19:08.923Z,8.80
2018-01-26T01:21:38.018Z,8.80
2018-01-26T01:24:07.115Z,8.80
2018-01-26T01:26:36.193Z,8.90
2018-01-26T01:29:04.521Z,8.80
2018-01-26T01:31:32.819Z,8.90
2018-01-26T01:36:59.720Z,8.90
2018-01-26T01:39:28.840Z,8.90
2018-01-26T01:41:57.889Z,8.90
2018-01-26T01:44:26.181Z,8.80
2018-01-26T01:46:54.522Z,8.90
2018-01-26T01:49:22.827Z,8.90
2018-01-26T01:51:51.160Z,9.00
2018-01-26T01:54:19.461Z,9.00
2018-01-26T01:56:47.784Z,9.00
2018-01-26T01:59:16.841Z,9.00
2018-01-26T02:01:45.185Z,8.90
2018-01-26T02:04:13.489Z,9.00
2018-01-26T02:06:41.782Z,9.00
2018-01-26T02:09:10.881Z,9.00
2018-01-26T02:11:39.573Z,9.00
2018-01-26T02:14:08.653Z,9.00
2018-01-26T02:16:36.953Z,9.00
2018-01-26T02:19:06.037Z,9.00
2018-01-26T02:21:35.114Z,9.00
2018-01-26T02:24:03.447Z,9.00
2018-01-26T02:26:31.777Z,9.00
2018-01-26T02:29:00.156Z,9.00
2018-01-26T02:31:28.449Z,8.90
2018-01-26T02:33:57.503Z,8.80
2018-01-26T02:36:25.813Z,8.80
2018-01-26T02:38:54.866Z,8.80
2018-01-26T02:41:23.201Z,8.80
2018-01-26T02:43:51.532Z,8.80
2018-01-26T02:46:19.849Z,8.80
2018-01-26T02:48:48.914Z,8.80
2018-01-26T02:51:17.236Z,8.80
2018-01-26T02:53:45.992Z,8.80
2018-01-26T02:56:15.094Z,8.70
2018-01-26T02:58:43.411Z,8.70
2018-01-26T03:01:11.715Z,8.70
2018-01-26T03:03:41.145Z,8.70
2018-01-26T03:06:10.203Z,8.70
2018-01-26T03:08:38.524Z,8.60
2018-01-26T03:11:07.590Z,8.60
2018-01-26T03:13:35.913Z,8.60
2018-01-26T03:16:04.455Z,8.60
2018-01-26T03:18:32.769Z,8.50
2018-01-26T03:21:01.101Z,8.50
2018-01-26T03:23:29.425Z,8.50
2018-01-26T03:25:57.712Z,8.50
2018-01-26T03:28:26.045Z,8.50
2018-01-26T03:30:55.108Z,8.40
2018-01-26T03:33:23.429Z,8.40
2018-01-26T03:35:52.533Z,8.30
2018-01-26T03:38:20.833Z,8.20
2018-01-26T03:40:49.155Z,8.20
2018-01-26T03:43:17.449Z,8.20
2018-01-26T03:45:46.545Z,8.20
2018-01-26T03:48:15.601Z,8.30
2018-01-26T03:50:43.917Z,8.20
2018-01-26T03:53:14.064Z,8.30
2018-01-26T03:55:42.406Z,8.30
2018-01-26T03:58:11.474Z,8.20
2018-01-26T04:00:39.871Z,8.20
2018-01-26T04:03:08.193Z,8.20
2018-01-26T04:05:36.492Z,8.20
2018-01-26T04:08:04.823Z,8.30
2018-01-26T04:10:33.124Z,8.30
2018-01-26T04:13:01.448Z,8.30
2018-01-26T04:15:29.766Z,8.30
2018-01-26T04:17:58.829Z,8.30
2018-01-26T04:20:27.889Z,8.30
2018-01-26T04:22:56.207Z,8.30
2018-01-26T04:25:25.252Z,8.30
2018-01-26T04:27:53.588Z,8.20
2018-01-26T04:30:21.889Z,8.20
2018-01-26T04:32:50.196Z,8.10
2018-01-26T04:35:18.486Z,8.10
2018-01-26T04:37:46.804Z,8.10
2018-01-26T04:40:15.105Z,8.10
2018-01-26T04:42:43.436Z,8.10
2018-01-26T04:45:13.346Z,8.00
2018-01-26T04:47:41.677Z,8.00
2018-01-26T04:50:09.976Z,8.00
2018-01-26T04:52:38.368Z,7.90
2018-01-26T04:55:07.437Z,7.90
2018-01-26T04:57:35.736Z,7.80
2018-01-26T05:00:04.833Z,7.80
2018-01-26T05:02:33.128Z,7.80
2018-01-26T05:05:02.213Z,7.80
2018-01-26T05:07:31.277Z,7.90
2018-01-26T05:09:59.597Z,7.90
2018-01-26T05:12:28.664Z,8.00
2018-01-26T05:14:56.972Z,8.00
2018-01-26T05:17:25.285Z,8.10
2018-01-26T05:19:53.592Z,8.10
2018-01-26T05:22:21.897Z,8.20
2018-01-26T05:24:50.212Z,8.20
2018-01-26T05:27:18.536Z,8.30
2018-01-26T05:29:46.857Z,8.30
2018-01-26T05:32:15.197Z,8.40
2018-01-26T05:34:44.293Z,8.40
2018-01-26T05:37:13.381Z,8.40
2018-01-26T05:39:42.449Z,8.50
2018-01-26T05:42:10.774Z,8.40
2018-01-26T05:44:39.085Z,8.50
2018-01-26T05:47:07.405Z,8.50
2018-01-26T05:49:36.469Z,8.60
2018-01-26T05:52:04.785Z,8.50
2018-01-26T05:54:33.101Z,8.60
2018-01-26T05:57:01.424Z,8.70
2018-01-26T05:59:30.833Z,8.70
2018-01-26T06:04:58.417Z,8.70
2018-01-26T06:07:26.725Z,8.70
2018-01-26T06:09:55.056Z,8.70
2018-01-26T06:12:24.129Z,8.60
2018-01-26T06:14:52.462Z,8.60
2018-01-26T06:17:20.774Z,8.60
2018-01-26T06:19:49.088Z,8.60
2018-01-26T06:22:18.144Z,8.40
2018-01-26T06:24:46.460Z,8.40
2018-01-26T06:27:14.775Z,8.40
2018-01-26T06:29:43.146Z,8.30
2018-01-26T06:32:11.424Z,8.30
2018-01-26T06:34:39.742Z,8.20
2018-01-26T06:37:08.145Z,8.20
2018-01-26T06:45:31.972Z,8.10
2018-01-26T06:48:00.676Z,8.10
2018-01-26T06:50:29.984Z,8.10
2018-01-26T06:52:59.466Z,8.20
2018-01-26T06:55:28.227Z,8.10
2018-01-26T06:57:58.424Z,8.20
2018-01-26T07:00:28.677Z,8.20
2018-01-26T07:02:57.207Z,8.20
2018-01-26T07:05:25.671Z,8.20
2018-01-26T07:07:54.147Z,8.20
2018-01-26T07:10:23.812Z,8.30
2018-01-26T07:12:52.744Z,8.40
2018-01-26T07:15:21.264Z,8.40
2018-01-26T07:17:49.574Z,8.40
2018-01-26T07:20:17.880Z,8.40
2018-01-26T07:22:46.210Z,8.40
2018-01-26T07:25:14.548Z,8.40
2018-01-26T07:27:42.881Z,8.50
2018-01-26T07:30:11.204Z,8.50
2018-01-26T07:32:40.277Z,8.50
2018-01-26T07:35:08.613Z,8.50
2018-01-26T07:37:36.917Z,8.40
2018-01-26T07:40:05.240Z,8.30
2018-01-26T07:42:34.293Z,8.30
2018-01-26T07:45:02.687Z,8.20
2018-01-26T07:47:31.018Z,8.20
2018-01-26T07:49:59.313Z,8.20
2018-01-26T07:52:27.645Z,8.20
2018-01-26T07:54:56.013Z,8.20
2018-01-26T07:57:24.330Z,8.20
2018-01-26T07:59:52.649Z,8.20
2018-01-26T08:02:21.030Z,8.10
2018-01-26T08:04:50.096Z,8.20
2018-01-26T08:07:18.396Z,8.10
2018-01-26T08:09:47.285Z,8.20
2018-01-26T08:12:15.576Z,8.20
2018-01-26T08:14:44.668Z,8.30
2018-01-26T08:17:12.996Z,8.30
2018-01-26T08:19:41.332Z,8.40
2018-01-26T08:22:10.381Z,8.40
2018-01-26T08:24:38.700Z,8.40
2018-01-26T08:27:07.768Z,8.50
2018-01-26T08:29:36.093Z,8.40
2018-01-26T08:32:04.612Z,8.50
2018-01-26T08:34:33.025Z,8.40
2018-01-26T08:37:02.095Z,8.40
2018-01-26T08:42:39.421Z,8.60
2018-01-26T08:45:08.498Z,8.50
2018-01-26T08:47:36.798Z,8.50
2018-01-26T08:50:05.882Z,8.50
2018-01-26T08:52:34.250Z,8.40
2018-01-26T08:58:01.633Z,8.90
2018-01-26T09:00:29.918Z,8.80
2018-01-26T09:02:58.266Z,8.90
2018-01-26T09:05:26.557Z,9.00
2018-01-26T09:07:55.657Z,9.10
2018-01-26T09:10:24.738Z,9.30
2018-01-26T09:12:53.883Z,9.40
2018-01-26T09:15:22.177Z,9.30
2018-01-26T09:17:50.493Z,9.50
2018-01-26T09:20:19.102Z,9.70
2018-01-26T09:22:48.153Z,9.90
2018-01-26T09:25:16.490Z,9.90
2018-01-26T09:27:44.779Z,9.90
2018-01-26T09:30:13.118Z,9.80
2018-01-26T09:32:42.198Z,9.70
2018-01-26T09:35:10.504Z,9.60
2018-01-26T09:37:38.797Z,9.60
2018-01-26T09:40:07.141Z,9.60
2018-01-26T09:42:36.237Z,9.60
2018-01-26T09:45:05.366Z,9.60
2018-01-26T09:47:33.645Z,9.50
2018-01-26T09:50:01.989Z,9.50
2018-01-26T09:52:31.037Z,9.60
2018-01-26T09:54:59.373Z,9.50
2018-01-26T09:57:27.714Z,9.50
2018-01-26T09:59:56.313Z,9.50
2018-01-26T10:02:25.407Z,9.60
2018-01-26T10:04:54.478Z,9.60
2018-01-26T10:07:22.841Z,9.60
2018-01-26T10:09:51.165Z,9.50
2018-01-26T10:12:19.537Z,9.40
2018-01-26T10:14:47.818Z,9.30
2018-01-26T10:17:16.909Z,9.10
2018-01-26T10:19:45.192Z,9.00
2018-01-26T10:22:14.274Z,8.90
2018-01-26T10:24:42.592Z,8.80
2018-01-26T10:30:09.317Z,8.70
2018-01-26T10:32:38.365Z,8.70
2018-01-26T10:35:06.669Z,8.60
2018-01-26T10:37:34.981Z,8.70
2018-01-26T10:40:03.291Z,8.70
2018-01-26T10:42:31.585Z,8.80
2018-01-26T10:44:59.915Z,8.90
2018-01-26T10:47:28.275Z,8.90
2018-01-26T10:49:56.610Z,8.90
2018-01-26T10:52:24.904Z,8.90
2018-01-26T10:54:53.223Z,9.00
2018-01-26T10:57:21.526Z,9.00
2018-01-26T10:59:49.857Z,9.10
2018-01-26T11:02:18.916Z,9.50
2018-01-26T11:04:47.228Z,9.50
2018-01-26T11:07:15.590Z,9.60
2018-01-26T11:09:44.692Z,9.70
2018-01-26T11:12:12.979Z,9.60
2018-01-26T11:14:42.071Z,9.70
2018-01-26T11:17:11.133Z,9.80
2018-01-26T11:19:39.421Z,9.70
2018-01-26T11:22:08.020Z,9.80
2018-01-26T11:24:37.082Z,9.80
2018-01-26T11:27:05.454Z,9.80
2018-01-26T11:29:33.760Z,9.90
2018-01-26T11:32:02.837Z,9.90
2018-01-26T11:34:31.138Z,9.80
2018-01-26T11:36:59.468Z,10.00
2018-01-26T11:39:27.801Z,10.10
2018-01-26T11:41:56.913Z,10.10
2018-01-26T11:44:25.216Z,10.00
2018-01-26T11:46:53.510Z,10.10
2018-01-26T11:49:21.838Z,10.20
2018-01-26T11:51:50.137Z,10.20
2018-01-26T11:54:18.436Z,10.20
2018-01-26T11:56:46.766Z,10.20
2018-01-26T11:59:15.094Z,10.10
2018-01-26T12:01:43.403Z,10.20
2018-01-26T12:04:11.720Z,10.10
2018-01-26T12:06:40.185Z,10.00
2018-01-26T12:09:08.489Z,10.10
2018-01-26T12:11:36.813Z,10.20
2018-01-26T12:14:05.173Z,10.30
2018-01-26T12:16:34.257Z,10.50
2018-01-26T12:19:02.712Z,10.50
2018-01-26T12:21:31.033Z,10.60
2018-01-26T12:24:00.105Z,10.90
2018-01-26T12:26:28.606Z,10.80
2018-01-26T12:28:57.676Z,10.80
2018-01-26T12:31:25.980Z,10.70
2018-01-26T12:33:54.301Z,10.70
2018-01-26T12:36:22.636Z,10.60
2018-01-26T12:38:50.945Z,10.50
2018-01-26T12:41:19.221Z,10.40
2018-01-26T12:43:48.030Z,10.40
2018-01-26T12:46:17.045Z,10.40
2018-01-26T12:48:45.345Z,10.40
2018-01-26T12:51:14.453Z,10.40
2018-01-26T12:53:42.761Z,10.40
2018-01-26T12:56:11.356Z,10.40
2018-01-26T12:58:39.660Z,10.40
2018-01-26T13:01:07.965Z,10.40
2018-01-26T13:03:36.290Z,10.50
2018-01-26T13:06:04.904Z,10.40
2018-01-26T13:08:34.203Z,10.10
2018-01-26T13:11:02.549Z,10.10
2018-01-26T13:13:30.900Z,10.10
2018-01-26T13:15:59.228Z,10.10
2018-01-26T13:18:28.365Z,10.20
2018-01-26T13:20:56.668Z,10.20
2018-01-26T13:23:24.992Z,10.20
2018-01-26T13:25:54.065Z,10.30
2018-01-26T13:28:22.368Z,10.20
2018-01-26T13:30:50.727Z,10.30
2018-01-26T13:33:19.065Z,10.40
2018-01-26T13:35:47.373Z,10.40
2018-01-26T13:38:15.969Z,10.40
2018-01-26T13:40:45.036Z,10.40
2018-01-26T13:43:13.351Z,10.40
2018-01-26T13:45:41.676Z,10.30
2018-01-26T13:48:11.012Z,10.20
2018-01-26T13:50:40.127Z,10.10
2018-01-26T13:53:09.221Z,10.00
2018-01-26T13:55:38.272Z,9.90
2018-01-26T13:58:06.599Z,9.90
2018-01-26T14:00:34.914Z,9.80
2018-01-26T14:03:03.246Z,9.80
2018-01-26T14:05:31.575Z,9.80
2018-01-26T14:07:59.887Z,9.90
2018-01-26T14:10:28.217Z,9.90
2018-01-26T14:12:56.565Z,10.00
2018-01-26T14:15:24.885Z,10.00
2018-01-26T14:17:53.200Z,10.00
2018-01-26T14:20:21.514Z,10.00
2018-01-26T14:22:49.809Z,9.90
2018-01-26T14:25:18.123Z,9.90
2018-01-26T14:27:47.206Z,9.90
2018-01-26T14:30:16.282Z,9.90
2018-01-26T14:32:44.625Z,9.80
2018-01-26T14:35:12.956Z,9.90
2018-01-26T14:37:42.041Z,9.80
2018-01-26T14:40:11.133Z,9.70
2018-01-26T14:42:39.500Z,9.70
2018-01-26T14:45:07.789Z,9.60
2018-01-26T14:47:36.094Z,9.60
2018-01-26T14:50:05.156Z,9.50
2018-01-26T14:52:33.482Z,9.50
2018-01-26T14:55:01.781Z,9.50
2018-01-26T14:57:30.089Z,9.50
2018-01-26T14:59:59.180Z,9.50
2018-01-26T15:02:28.146Z,9.40
2018-01-26T15:04:56.778Z,9.50
2018-01-26T15:07:26.081Z,9.50
2018-01-26T15:09:55.149Z,9.40
2018-01-26T15:12:24.458Z,9.40
2018-01-26T15:14:53.028Z,9.30
2018-01-26T15:17:21.788Z,9.30
2018-01-26T15:19:50.340Z,9.20
2018-01-26T15:22:18.723Z,9.10
2018-01-26T15:24:48.019Z,9.00
2018-01-26T15:27:17.255Z,8.90
2018-01-26T15:29:45.702Z,8.90
2018-01-26T15:32:16.783Z,8.80
2018-01-26T15:34:46.579Z,8.80
2018-01-26T15:37:17.488Z,8.70
2018-01-26T15:39:47.958Z,8.70
2018-01-26T15:42:18.712Z,8.70
2018-01-26T15:44:49.735Z,8.70
2018-01-26T15:47:21.844Z,8.80
2018-01-26T15:49:54.341Z,8.70
2018-01-26T15:52:25.202Z,8.80
2018-01-26T15:54:55.277Z,8.80
2018-01-26T15:57:26.027Z,8.80
2018-01-26T15:59:54.856Z,8.80
2018-01-26T16:02:23.169Z,8.90
2018-01-26T16:04:51.482Z,8.90
2018-01-26T16:07:19.808Z,8.90
2018-01-26T16:09:48.877Z,8.90
2018-01-26T16:12:17.209Z,8.90
2018-01-26T16:14:45.503Z,8.90
2018-01-26T16:17:13.838Z,8.90
2018-01-26T16:19:42.913Z,8.90
2018-01-26T16:22:11.229Z,8.90
2018-01-26T16:24:39.529Z,8.90
2018-01-26T16:27:07.869Z,9.00
2018-01-26T16:29:36.925Z,8.90
2018-01-26T16:32:05.233Z,8.90
2018-01-26T16:34:34.328Z,8.90
2018-01-26T16:37:02.614Z,8.80
2018-01-26T16:39:30.958Z,8.90
2018-01-26T16:41:59.265Z,9.00
2018-01-26T16:44:27.627Z,9.10
2018-01-26T16:46:55.924Z,9.20
2018-01-26T16:49:24.268Z,9.20
2018-01-26T16:51:52.556Z,9.20
2018-01-26T16:54:21.651Z,9.20
2018-01-26T16:56:50.749Z,9.20
2018-01-26T17:02:17.604Z,9.00
2018-01-26T17:04:46.694Z,9.00
2018-01-26T17:07:14.989Z,9.00
2018-01-26T17:12:42.193Z,8.90
2018-01-26T17:15:10.512Z,8.90
2018-01-26T17:17:39.630Z,8.90
2018-01-26T17:20:08.707Z,8.90
2018-01-26T17:22:37.038Z,8.80
2018-01-26T17:25:05.362Z,8.90
2018-01-26T17:27:34.460Z,8.90
2018-01-26T17:30:02.755Z,8.80
2018-01-26T17:32:31.839Z,8.80
2018-01-26T17:35:00.910Z,8.80
2018-01-26T17:37:29.224Z,8.80
2018-01-26T17:39:57.573Z,8.80
2018-01-26T17:42:26.661Z,8.70
2018-01-26T17:44:54.980Z,8.70
2018-01-26T17:47:23.284Z,8.70
2018-01-26T17:49:51.628Z,8.70
2018-01-26T17:52:19.933Z,8.70
2018-01-26T17:54:48.259Z,8.70
2018-01-26T17:57:17.342Z,8.70
2018-01-26T17:59:45.684Z,8.60
2018-01-26T18:02:13.958Z,8.60
2018-01-26T18:04:42.268Z,8.50
2018-01-26T18:07:10.582Z,8.50
2018-01-26T18:09:38.886Z,8.50
2018-01-26T18:12:07.225Z,8.40
2018-01-26T18:14:36.284Z,8.40
2018-01-26T18:17:04.595Z,8.30
2018-01-26T18:19:32.948Z,8.40
2018-01-26T18:22:01.244Z,8.30
2018-01-26T18:24:30.301Z,8.20
2018-01-26T18:26:58.609Z,8.10
2018-01-26T18:29:26.934Z,8.10
2018-01-26T18:31:55.216Z,8.10
2018-01-26T18:34:23.516Z,8.10
2018-01-26T18:36:51.792Z,8.00
2018-01-26T18:39:20.112Z,7.90
2018-01-26T18:41:48.409Z,7.90
2018-01-26T18:44:16.785Z,7.80
2018-01-26T18:46:45.094Z,7.80
2018-01-26T18:49:13.400Z,7.70
2018-01-26T18:51:42.480Z,7.70
2018-01-26T18:54:10.812Z,7.60
2018-01-26T18:56:39.123Z,7.70
2018-01-26T18:59:07.519Z,7.70
2018-01-26T19:01:35.835Z,7.70
2018-01-26T19:04:04.167Z,7.70
2018-01-26T19:06:32.489Z,7.60
2018-01-26T19:09:00.799Z,7.70
2018-01-26T19:11:29.118Z,7.70
2018-01-26T19:13:58.182Z,7.80
2018-01-26T19:16:26.500Z,7.80
2018-01-26T19:18:54.807Z,7.80
2018-01-26T19:21:23.168Z,7.90
2018-01-26T19:23:52.189Z,7.90
2018-01-26T19:26:20.580Z,7.90
2018-01-26T19:28:49.971Z,8.00
2018-01-26T19:31:18.265Z,7.90
2018-01-26T19:33:47.366Z,8.00
2018-01-26T19:36:15.668Z,8.00
2018-01-26T19:38:44.025Z,8.00
2018-01-26T19:41:12.495Z,8.00
2018-01-26T19:43:40.921Z,8.00
2018-01-26T19:46:09.273Z,8.00
2018-01-26T19:48:37.585Z,8.00
2018-01-26T19:51:05.889Z,8.10
2018-01-26T19:53:34.208Z,8.10
2018-01-26T19:56:02.529Z,8.10
2018-01-26T19:58:31.083Z,8.10
2018-01-26T20:00:59.379Z,8.10
2018-01-26T20:03:32.219Z,8.10
2018-01-26T20:19:25.800Z,7.50
2018-01-26T20:21:54.125Z,7.40
2018-01-26T20:24:22.430Z,7.40
2018-01-26T20:26:50.780Z,7.40
2018-01-26T20:29:19.077Z,7.40
2018-01-26T20:31:48.174Z,7.40
2018-01-26T20:34:17.232Z,7.40
2018-01-26T20:36:45.538Z,7.30
2018-01-26T20:39:13.832Z,7.40
2018-01-26T20:41:42.904Z,7.40
2018-01-26T20:44:12.004Z,7.40
2018-01-26T20:46:41.101Z,7.40
2018-01-26T20:49:09.426Z,7.30
2018-01-26T20:51:37.724Z,7.40
2018-01-26T20:54:06.045Z,7.40
2018-01-26T20:56:34.365Z,7.40
2018-01-26T20:59:02.684Z,7.40
2018-01-26T21:01:31.152Z,7.40
2018-01-26T21:03:59.468Z,7.40
2018-01-26T21:06:28.526Z,7.40
2018-01-26T21:08:57.613Z,7.40
2018-01-26T21:11:25.910Z,7.30
2018-01-26T21:13:54.270Z,7.30
2018-01-26T21:16:23.337Z,7.30
2018-01-26T21:18:51.641Z,7.20
2018-01-26T21:21:19.975Z,7.30
2018-01-26T21:23:48.277Z,7.20
2018-01-26T21:26:16.601Z,7.20
2018-01-26T21:28:44.904Z,7.20
2018-01-26T21:31:13.221Z,7.20
2018-01-26T21:33:41.509Z,7.20
2018-01-26T21:36:10.616Z,7.30
2018-01-26T21:38:39.709Z,7.30
2018-01-26T21:41:08.797Z,7.40
2018-01-26T21:43:37.880Z,7.40
2018-01-26T21:46:06.211Z,7.40
2018-01-26T21:48:34.857Z,7.50
2018-01-26T21:51:03.914Z,7.50
2018-01-26T21:53:32.224Z,7.50
2018-01-26T21:56:01.297Z,7.40
2018-01-26T21:58:29.611Z,7.40
2018-01-26T22:00:57.904Z,7.40
2018-01-26T22:03:26.225Z,7.30
2018-01-26T22:05:54.531Z,7.30
2018-01-26T22:08:22.897Z,7.20
2018-01-26T22:10:51.184Z,7.20
2018-01-26T22:13:20.257Z,7.10
2018-01-26T22:15:48.552Z,7.10
2018-01-26T22:18:17.657Z,7.10
2018-01-26T22:20:46.701Z,7.00
2018-01-26T22:23:15.050Z,6.90
2018-01-26T22:25:43.370Z,7.00
2018-01-26T22:28:11.660Z,6.90
2018-01-26T22:30:40.779Z,6.70
2018-01-26T22:33:09.141Z,6.70
2018-01-26T22:35:37.528Z,6.60
2018-01-26T22:38:05.828Z,6.50
2018-01-26T22:40:34.148Z,6.50
2018-01-26T22:43:03.244Z,6.30
2018-01-26T22:45:31.597Z,6.30
2018-01-26T22:47:59.902Z,6.30
2018-01-26T22:50:28.238Z,6.20
2018-01-26T22:52:56.561Z,6.10
2018-01-26T22:55:24.897Z,6.00
2018-01-26T22:57:53.193Z,6.00
2018-01-26T23:00:21.493Z,6.00
2018-01-26T23:02:50.581Z,6.00
2018-01-26T23:05:18.892Z,5.90
2018-01-26T23:07:47.212Z,6.00
2018-01-26T23:10:15.596Z,6.00
2018-01-26T23:12:43.922Z,6.00
2018-01-26T23:15:12.236Z,6.10
2018-01-26T23:17:40.565Z,6.10
2018-01-26T23:20:08.874Z,6.10
2018-01-26T23:22:37.201Z,6.20
2018-01-26T23:25:05.495Z,6.20
2018-01-26T23:27:34.582Z,6.20
2018-01-26T23:30:02.868Z,6.20
2018-01-26T23:32:31.923Z,6.40
2018-01-26T23:35:00.237Z,6.30
2018-01-26T23:37:28.813Z,6.40
2018-01-26T23:39:57.205Z,6.50
2018-01-26T23:42:25.505Z,6.50
2018-01-26T23:44:53.827Z,6.60
2018-01-26T23:47:22.913Z,6.60
2018-01-26T23:49:51.237Z,6.60
2018-01-26T23:52:19.532Z,6.70
2018-01-26T23:54:49.409Z,6.80
2018-01-26T23:57:17.790Z,6.80
2018-01-26T23:59:46.152Z,6.90
